Blue Oak Ranch Reserve, California Weather observations

Data are for 10 minute period ending at time listed.
 Day   Time   Solar   Ave.   Ave.  Ave.  Vector  Max.   Baro.   Total    
  of    of     Rad.   Air    Rel.  Wind   Wind   Wind  Press.  Precip.   
Year   Day            Temp.  Hum.  Speed  Dir.   Gust                    
2014   (PST)  Kw/m2    F      %     mph   deg.    mph    mb.     in.     
-------------------------------------------------------------------------
 265   15:10   0.47   80.9    40    5.0   245     8.6   948.0    0.00 
 265   15:20   0.44   80.5    41    5.4   242     8.6   948.0    0.00 
 265   15:30   0.40   79.8    44    6.1   251    12.0   948.0    0.00 
 265   15:40   0.37   78.2    46    6.6   260    12.4   948.1    0.00 
 265   15:50   0.36   78.0    45    7.4   281    11.5   948.2    0.00 
 265   16:00   0.33   78.0    44    6.1   280     9.6   948.3    0.00 
 265   16:10   0.24   77.3    46    6.1   276     9.1   948.3    0.00 
 265   16:20   0.27   76.4    49    4.8   241     9.6   948.3    0.00 
 265   16:30   0.14   75.3    49    4.0   253     7.9   948.3    0.00 
 265   16:40   0.08   73.1    52    3.8   253     8.0   948.4    0.00 
 265   16:50   0.14   71.5    54    2.6   239     5.9   948.4    0.00 
 265   17:00   0.11   71.3    55    2.3   214     3.7   948.4    0.00 
 265   17:10   0.14   71.9    54    2.2   229     4.0   948.3    0.00 
 265   17:20   0.13   72.4    54    2.5   242     3.8   948.3    0.00 
 265   17:30   0.10   72.6    54    2.3   238     4.2   948.4    0.00 
 265   17:40   0.07   72.1    54    3.1   269     7.2   948.3    0.00 
 265   17:50   0.03   69.5    60    4.3   274     6.7   948.3    0.00 
 265   18:00   0.01   67.5    64    3.3   275     5.0   948.3    0.00 
 265   18:10   0.01   66.3    65    1.4   230     3.4   948.3    0.00 
 265   18:20   0.00   65.0    67    0.9   181     1.8   948.1    0.00 
 265   18:30   0.00   64.0    68    0.6   243     1.6   948.1    0.00 
 265   18:40   0.00   62.9    69    0.8    49     1.7   948.0    0.00 
 265   18:50   0.00   62.2    70    0.9    62     2.1   947.9    0.00 
 265   19:00   0.00   61.3    73    1.9   298     3.7   947.9    0.00 
 265   19:10   0.00   60.8    73    1.6    58     3.2   947.8    0.00 
 265   19:20   0.00   60.3    74    2.1   292     3.9   947.7    0.00 
 265   19:30   0.00   60.1    74    1.0   294     3.7   947.8    0.00 
 265   19:40   0.00   59.7    75    0.0   108     0.4   947.9    0.00 
 265   19:50   0.00   59.3    75    0.8   282     2.3   948.0    0.00 
 265   20:00   0.00   59.0    75    0.5   291     1.5   948.1    0.00 
 265   20:10   0.00   58.4    76    0.6    81     1.5   948.2    0.00 
 265   20:20   0.00   58.4    76    0.1   306     0.7   948.2    0.00 
 265   20:30   0.00   58.0    76    0.1   308     0.7   948.2    0.00 
 265   20:40   0.00   57.8    77    0.3   112     1.5   948.2    0.00 
 265   20:50   0.00   57.3    77    0.3    54     1.2   948.2    0.00 
 265   21:00   0.00   57.3    78    0.2   315     1.2   948.4    0.00 
 265   21:10   0.00   56.9    79    0.7    40     2.1   948.3    0.00 
 265   21:20   0.00   56.8    79    0.6   290     1.5   948.3    0.00 
 265   21:30   0.00   56.9    80    1.4   303     3.1   948.2    0.00 
 265   21:40   0.00   56.4    80    0.7     8     1.8   948.1    0.00 
 265   21:50   0.00   56.4    80    0.7    71     1.5   948.0    0.00 
 265   22:00   0.00   55.9    80    1.3   294     2.6   948.1    0.00 
 265   22:10   0.00   55.9    81    1.3    50     2.6   948.0    0.00 
 265   22:20   0.00   56.0    81    2.0   281     4.5   948.0    0.00 
 265   22:30   0.00   55.4    82    4.7   289     6.0   948.0    0.00 
 265   22:40   0.00   55.2    83    1.5   259     5.0   948.1    0.00 
 265   22:50   0.00   56.5    82    1.0    62     1.8   948.1    0.00 
 265   23:00   0.00   56.2    81    0.7   102     1.8   948.2    0.00 
 265   23:10   0.00   55.9    82    0.3    70     1.5   948.3    0.00 
 265   23:20   0.00   55.5    81    2.0    72     2.7   948.3    0.00 
 265   23:30   0.00   54.7    83    1.8    81     2.6   948.2    0.00 
 265   23:40   0.00   54.3    84    1.5    58     2.9   948.1    0.00 
 265   23:50   0.00   53.9    85    2.4   294     3.4   948.1    0.00 
 266    0:00   0.00   53.8    86    1.1   299     1.8   948.1    0.00 
 266    0:10   0.00   53.7    87    0.8    36     1.8   948.3    0.00 
 266    0:20   0.00   53.5    86    1.3   304     3.4   948.3    0.00 
 266    0:30   0.00   53.0    87    0.5   309     1.8   948.4    0.00 
 266    0:40   0.00   53.5    88    0.8    84     1.7   948.5    0.00 
 266    0:50   0.00   53.5    86    2.4    86     3.2   948.4    0.00 
 266    1:00   0.00   53.3    85    1.4   358     2.6   948.3    0.00 
 266    1:10   0.00   53.2    86    3.2   294     4.1   948.1    0.00 
 266    1:20   0.00   53.2    87    3.2   290     4.6   948.1    0.00 
 266    1:30   0.00   54.2    87    3.4   256     7.5   948.3    0.00 
 266    1:40   0.00   54.3    87    1.3   150     4.2   948.4    0.00 
 266    1:50   0.01   54.6    90    1.2   123     2.0   948.3    0.00 
 266    2:00   0.01   54.4    91    0.2   314     0.8   948.2    0.00 
 266    2:10   0.01   53.5    90    0.5   290     1.3   948.1    0.00 
 266    2:20   0.01   53.1    91    2.1    67     3.0   948.1    0.00 
 266    2:30   0.01   52.3    91    1.8    74     3.1   947.9    0.00 
 266    2:40   0.01   51.8    91    1.7   291     3.4   947.7    0.00 
 266    2:50   0.01   51.8    92    1.8   297     3.2   947.6    0.00 
 266    3:00   0.01   51.7    92    1.6   298     3.0   947.6    0.00 
 266    3:10   0.01   51.9    92    1.7   301     3.6   947.7    0.00 
 266    3:20   0.00   52.0    92    1.8    60     3.1   947.8    0.00 
 266    3:30   0.01   52.1    92    0.4    87     1.7   947.8    0.00 
 266    3:40   0.01   51.4    91    1.2   297     3.1   947.8    0.00 
 266    3:50   0.01   51.8    92    3.4   278     4.5   948.0    0.00 
 266    4:00   0.01   52.5    92    0.8   358     1.3   948.0    0.00 
 266    4:10   0.01   52.5    92    1.3    75     2.3   947.8    0.00 
 266    4:20   0.01   51.9    92    1.5   301     2.6   947.9    0.00 
 266    4:30   0.01   51.6    92    0.9   294     2.5   947.9    0.00 
 266    4:40   0.00   52.3    93    0.5   296     1.2   948.0    0.00 
 266    4:50   0.00   52.9    93    0.2    62     1.4   947.9    0.00 
 266    5:00   0.01   53.3    93    0.4   295     1.2   947.9    0.00 
 266    5:10   0.01   52.4    92    1.5   288     2.3   947.9    0.00 
 266    5:20   0.00   53.4    93    1.7   294     2.8   948.1    0.00 
 266    5:30   0.00   54.0    93    0.8    92     2.5   948.3    0.00 
 266    5:40   0.01   53.9    93    0.4    87     1.3   948.3    0.00 
 266    5:50   0.01   54.0    92    1.2    42     2.7   948.3    0.00 
 266    6:00   0.01   53.8    92    1.3   297     3.7   948.3    0.00 
 266    6:10   0.01   54.2    92    0.6   303     1.5   948.3    0.00 
 266    6:20   0.01   54.6    91    1.2   291     3.4   948.4    0.00 
 266    6:30   0.03   54.9    91    1.4   292     2.9   948.5    0.00 
 266    6:40   0.03   55.1    90    0.0   276     0.7   948.5    0.00 
 266    6:50   0.03   55.1    90    0.2    90     1.0   948.5    0.00 
 266    7:00   0.12   55.7    91    0.0     0     0.0   948.4    0.00 
 266    7:10   0.16   58.2    87    1.1   290     2.0   948.4    0.00 
 266    7:20   0.19   61.8    77    1.1    63     2.6   948.3    0.00 
 266    7:30   0.22   64.4    68    1.7   149     3.2   948.3    0.00 
 266    7:40   0.25   66.9    62    0.6   156     1.8   948.2    0.00 
 266    7:50   0.27   68.6    61    2.7   276     3.9   948.3    0.00 
 266    8:00   0.30   70.6    57    1.8   250     3.3   948.5    0.00 
 266    8:10   0.33   73.2    53    2.0   242     3.5   948.7    0.00 
 266    8:20   0.36   74.1    52    1.7   234     3.7   949.0    0.00 
 266    8:30   0.39   74.4    52    2.7   231     5.6   949.1    0.00 
 266    8:40   0.41   71.5    58    4.3   239     6.0   949.3    0.00 
 266    8:50   0.44   68.5    64    4.9   242     7.6   949.4    0.00 
 266    9:00   0.47   68.1    65    3.8   233     5.7   949.6    0.00 
 266    9:10   0.49   68.9    63    3.0   234     5.5   949.7    0.00 
 266    9:20   0.52   70.7    60    3.8   240     5.9   949.7    0.00 
 266    9:30   0.54   71.2    59    3.4   241     5.2   949.6    0.00 
 266    9:40   0.56   72.3    57    3.7   238     6.1   949.7    0.00 
 266    9:50   0.59   72.9    56    3.1   246     5.3   949.6    0.00 
 266   10:00   0.61   74.7    52    3.9   237     6.8   949.5    0.00 
 266   10:10   0.63   74.7    53    4.4   250     7.5   949.6    0.00 
 266   10:20   0.64   73.8    55    5.1   235     7.5   949.6    0.00 
 266   10:30   0.66   73.5    55    5.3   235     8.6   949.5    0.00 
 266   10:40   0.67   73.7    55    5.1   236     8.8   949.4    0.00 
 266   10:50   0.68   74.5    54    4.8   239     7.7   949.4    0.00 
 266   11:00   0.69   75.5    52    4.5   244     7.7   949.4    0.00 
 266   11:10   0.70   75.5    52    4.9   231     9.1   949.3    0.00 
 266   11:20   0.71   76.2    51    4.8   232     8.4   949.2    0.00 
 266   11:30   0.71   76.6    50    5.0   242     7.0   949.2    0.00 
 266   11:40   0.72   77.1    49    5.3   246    10.2   949.1    0.00 
 266   11:50   0.72   77.3    49    5.2   263     9.6   949.1    0.00 
 266   12:00   0.73   78.1    47    5.5   253     9.2   949.0    0.00 
 266   12:10   0.72   76.2    50    6.0   266    11.7   949.0    0.00 
 266   12:20   0.72   77.9    47    5.3   248    10.5   948.9    0.00 
 266   12:30   0.72   78.7    46    5.4   254     8.6   948.8    0.00 
 266   12:40   0.72   79.3    44    4.8   245     8.9   948.6    0.00 
 266   12:50   0.69   79.9    43    4.5   243     8.3   948.5    0.00 
 266   13:00   0.71   79.8    43    5.0   252     8.0   948.3    0.00 
 266   13:10   0.69   80.7    41    4.3   231     7.4   948.2    0.00 
 266   13:20   0.68   81.4    40    4.8   261     9.3   948.0    0.00 
 266   13:30   0.67   81.0    39    5.4   258     9.3   947.9    0.00 
 266   13:40   0.65   80.2    40    5.9   259    10.0   947.8    0.00 
 266   13:50   0.64   80.5    39    5.1   258     9.2   947.7    0.00 
 266   14:00   0.62   80.7    38    5.7   257    10.4   947.6    0.00 
 266   14:10   0.60   81.2    38    6.4   259     9.9   947.5    0.00 
 266   14:20   0.58   80.1    40    5.9   250     9.0   947.4    0.00 
 266   14:30   0.56   80.7    40    5.5   246     9.4   947.4    0.00 
 266   14:40   0.54   81.1    39    4.5   243     8.1   947.3    0.00 
 266   14:50   0.52   81.2    40    4.5   240     8.0   947.2    0.00 
 266   15:00   0.49   80.6    41    5.3   264     8.8   947.2    0.00 

Return to Blue Oak Ranch Reserve graphs page.


Western Regional Climate Center,wrcc@dri.edu